createdAt,value
2023-05-14T00:04:42.009Z,4.05
2023-05-14T00:09:44.889Z,2.60
2023-05-14T00:14:47.944Z,2.85
2023-05-14T00:19:50.712Z,2.85
2023-05-14T00:24:53.616Z,2.72
2023-05-14T00:29:56.445Z,2.70
2023-05-14T00:34:59.470Z,2.90
2023-05-14T00:40:02.511Z,2.80
2023-05-14T00:45:07.850Z,2.87
2023-05-14T00:50:11.584Z,2.67
2023-05-14T00:55:16.855Z,2.63
2023-05-14T01:00:20.244Z,2.70
2023-05-14T01:05:25.611Z,3.60
2023-05-14T01:15:34.478Z,2.80
2023-05-14T01:20:37.566Z,2.60
2023-05-14T01:25:40.504Z,2.50
2023-05-14T01:30:54.148Z,2.28
2023-05-14T01:35:57.935Z,2.28
2023-05-14T01:41:01.557Z,2.30
2023-05-14T01:46:05.321Z,2.05
2023-05-14T01:51:08.169Z,2.00
2023-05-14T01:56:11.194Z,1.60
2023-05-14T02:01:14.372Z,1.40
2023-05-14T02:06:17.310Z,1.15
2023-05-14T02:11:20.198Z,1.50
2023-05-14T02:16:23.382Z,1.33
2023-05-14T02:21:27.828Z,1.38
2023-05-14T02:26:30.904Z,1.55
2023-05-14T02:31:33.919Z,1.38
2023-05-14T02:36:36.808Z,1.40
2023-05-14T02:41:40.728Z,1.33
2023-05-14T02:46:44.128Z,1.15
2023-05-14T02:51:47.398Z,1.30
2023-05-14T02:56:50.448Z,1.67
2023-05-14T03:01:53.628Z,1.25
2023-05-14T03:06:57.518Z,1.35
2023-05-14T03:12:00.980Z,1.27
2023-05-14T03:17:04.466Z,2.33
2023-05-14T03:22:07.436Z,5.40
2023-05-14T03:27:10.344Z,1.63
2023-05-14T03:32:13.323Z,1.92
2023-05-14T03:37:16.424Z,1.77
2023-05-14T03:42:19.402Z,1.73
2023-05-14T03:47:22.382Z,3.10
2023-05-14T03:52:25.364Z,1.60
2023-05-14T03:57:29.246Z,2.40
2023-05-14T04:02:32.577Z,3.40
2023-05-14T04:07:35.572Z,2.05
2023-05-14T04:12:38.627Z,3.05
2023-05-14T04:17:42.205Z,1.85
2023-05-14T04:22:45.123Z,1.80
2023-05-14T04:27:48.040Z,1.60
2023-05-14T04:32:50.889Z,2.92
2023-05-14T04:37:53.774Z,3.92
2023-05-14T04:42:56.601Z,2.85
2023-05-14T04:47:59.408Z,3.42
2023-05-14T04:53:02.364Z,1.40
2023-05-14T04:58:05.688Z,1.20
2023-05-14T05:03:09.203Z,1.40
2023-05-14T05:08:12.338Z,1.70
2023-05-14T05:13:17.362Z,1.85
2023-05-14T05:18:20.324Z,1.35
2023-05-14T05:23:23.178Z,1.00
2023-05-14T05:28:25.993Z,1.00
2023-05-14T05:33:29.040Z,1.20
2023-05-14T05:38:31.919Z,1.70
2023-05-14T05:43:34.933Z,1.30
2023-05-14T05:48:38.000Z,1.42
2023-05-14T05:53:41.270Z,1.48
2023-05-14T05:58:45.638Z,3.13
2023-05-14T06:03:53.774Z,1.50
2023-05-14T06:08:56.533Z,1.55
2023-05-14T06:13:59.492Z,1.40
2023-05-14T06:19:02.565Z,2.13
2023-05-14T06:24:05.945Z,1.45
2023-05-14T06:29:08.827Z,1.45
2023-05-14T06:34:12.216Z,1.50
2023-05-14T06:39:15.255Z,1.20
2023-05-14T06:44:19.972Z,3.58
2023-05-14T06:49:22.954Z,2.30
2023-05-14T06:54:25.713Z,1.25
2023-05-14T06:59:28.703Z,1.20
2023-05-14T07:04:31.766Z,1.20
2023-05-14T07:09:34.791Z,1.67
2023-05-14T07:14:38.163Z,2.00
2023-05-14T07:19:41.370Z,1.40
2023-05-14T07:24:44.268Z,1.55
2023-05-14T07:29:47.237Z,1.30
2023-05-14T07:34:50.250Z,1.48
2023-05-14T07:39:54.208Z,1.42
2023-05-14T07:44:57.130Z,1.52
2023-05-14T07:50:00.164Z,1.17
2023-05-14T07:55:04.325Z,1.27
2023-05-14T08:00:08.936Z,1.35
2023-05-14T08:05:18.564Z,1.88
2023-05-14T08:10:21.662Z,1.42
2023-05-14T08:15:26.358Z,1.08
2023-05-14T08:20:31.474Z,1.10
2023-05-14T08:25:34.651Z,1.02
2023-05-14T08:30:37.453Z,1.30
2023-05-14T08:35:40.434Z,2.17
2023-05-14T08:40:43.350Z,2.58
2023-05-14T08:45:47.276Z,2.45
2023-05-14T08:50:50.271Z,1.63
2023-05-14T08:55:54.503Z,10.05
2023-05-14T09:00:57.469Z,5.93
2023-05-14T09:06:00.890Z,1.50
2023-05-14T09:11:03.910Z,1.40
2023-05-14T09:16:07.400Z,1.20
2023-05-14T09:21:10.408Z,1.88
2023-05-14T09:26:19.142Z,1.45
2023-05-14T09:31:22.225Z,1.30
2023-05-14T09:36:27.407Z,1.27
2023-05-14T09:41:30.372Z,1.60
2023-05-14T09:46:33.684Z,1.60
2023-05-14T09:51:38.167Z,1.98
2023-05-14T09:56:41.625Z,2.08
2023-05-14T10:01:44.979Z,1.42
2023-05-14T10:06:49.221Z,1.55
2023-05-14T10:11:54.452Z,2.40
2023-05-14T10:17:00.058Z,1.27
2023-05-14T10:22:08.702Z,2.00
2023-05-14T10:27:11.641Z,1.55
2023-05-14T10:32:16.940Z,1.52
2023-05-14T10:37:21.992Z,1.60
2023-05-14T10:42:29.327Z,1.55
2023-05-14T10:47:32.914Z,1.50
2023-05-14T10:52:36.248Z,1.10
2023-05-14T10:57:41.027Z,1.48
2023-05-14T11:02:45.321Z,1.50
2023-05-14T11:07:50.049Z,1.77
2023-05-14T11:12:53.203Z,2.17
2023-05-14T11:17:56.251Z,1.73
2023-05-14T11:22:59.559Z,2.03
2023-05-14T11:28:02.404Z,1.48
2023-05-14T11:33:05.320Z,2.22
2023-05-14T11:38:09.322Z,1.30
2023-05-14T11:43:18.533Z,1.40
2023-05-14T11:48:22.194Z,1.30
2023-05-14T11:53:30.101Z,2.03
2023-05-14T11:58:34.186Z,1.95
2023-05-14T12:03:37.333Z,3.38
2023-05-14T12:08:40.539Z,1.65
2023-05-14T12:13:43.570Z,3.30
2023-05-14T12:18:46.558Z,2.80
2023-05-14T12:23:58.929Z,2.63
2023-05-14T12:29:03.378Z,2.58
2023-05-14T12:34:06.490Z,2.83
2023-05-14T12:39:10.043Z,2.70
2023-05-14T12:44:12.992Z,3.22
2023-05-14T12:49:15.899Z,3.83
2023-05-14T12:54:18.976Z,3.58
2023-05-14T12:59:23.485Z,4.15
2023-05-14T13:04:26.764Z,3.10
2023-05-14T13:09:29.556Z,2.28
2023-05-14T13:14:32.477Z,3.13
2023-05-14T13:19:35.470Z,3.15
2023-05-14T13:24:39.204Z,3.47
2023-05-14T13:29:42.801Z,4.40
2023-05-14T13:34:46.055Z,4.30
2023-05-14T13:39:50.637Z,4.40
2023-05-14T13:44:54.293Z,5.55
2023-05-14T13:49:57.305Z,6.18
2023-05-14T13:55:00.238Z,5.07
2023-05-14T14:00:03.252Z,3.58
2023-05-14T14:05:09.619Z,3.92
2023-05-14T14:10:13.240Z,4.43
2023-05-14T14:15:16.481Z,4.78
2023-05-14T14:20:19.499Z,4.90
2023-05-14T14:25:22.843Z,5.53
2023-05-14T14:30:26.045Z,5.22
2023-05-14T14:35:29.159Z,5.57
2023-05-14T14:40:34.191Z,6.40
2023-05-14T14:45:37.263Z,6.35
2023-05-14T14:50:40.216Z,6.70
2023-05-14T14:55:43.212Z,7.38
2023-05-14T15:00:46.310Z,7.68
2023-05-14T15:05:49.260Z,7.28
2023-05-14T15:10:52.539Z,8.27
2023-05-14T15:15:55.968Z,12.57
2023-05-14T15:20:58.866Z,14.65
2023-05-14T15:26:01.767Z,15.30
2023-05-14T15:31:04.811Z,11.95
2023-05-14T15:36:08.405Z,10.30
2023-05-14T15:41:11.274Z,8.43
2023-05-14T15:46:14.153Z,7.60
2023-05-14T15:51:17.088Z,7.20
2023-05-14T15:56:20.024Z,5.22
2023-05-14T16:01:22.908Z,4.13
2023-05-14T16:06:26.505Z,3.80
2023-05-14T16:11:30.535Z,3.80
2023-05-14T16:16:33.374Z,4.78
2023-05-14T16:21:36.446Z,3.72
2023-05-14T16:26:40.359Z,4.00
2023-05-14T16:31:44.134Z,6.20
2023-05-14T16:36:47.185Z,10.65
2023-05-14T16:41:50.163Z,13.27
2023-05-14T16:46:53.050Z,11.73
2023-05-14T16:51:55.892Z,12.07
2023-05-14T16:56:58.764Z,18.38
2023-05-14T17:02:01.683Z,10.80
2023-05-14T17:07:05.858Z,8.82
2023-05-14T17:12:10.081Z,8.90
2023-05-14T17:17:12.954Z,7.68
2023-05-14T17:22:15.953Z,8.55
2023-05-14T17:27:18.755Z,8.57
2023-05-14T17:32:21.787Z,9.45
2023-05-14T17:37:25.296Z,9.40
2023-05-14T17:42:28.174Z,8.75
2023-05-14T17:47:31.098Z,8.15
2023-05-14T17:52:33.976Z,6.78
2023-05-14T17:57:37.010Z,7.85
2023-05-14T18:02:40.148Z,6.70
2023-05-14T18:07:43.181Z,7.20
2023-05-14T18:12:46.312Z,6.97
2023-05-14T18:17:49.231Z,7.63
2023-05-14T18:22:52.723Z,7.38
2023-05-14T18:27:56.033Z,7.38
2023-05-14T18:33:00.058Z,6.90
2023-05-14T18:38:03.312Z,6.20
2023-05-14T18:43:06.465Z,7.05
2023-05-14T18:48:10.424Z,7.13
2023-05-14T18:53:13.337Z,6.63
2023-05-14T18:58:18.087Z,7.47
2023-05-14T19:03:21.237Z,7.55
2023-05-14T19:08:24.209Z,9.13
2023-05-14T19:13:28.886Z,8.73
2023-05-14T19:18:31.786Z,7.05
2023-05-14T19:23:34.612Z,5.88
2023-05-14T19:28:40.443Z,4.88
2023-05-14T19:33:43.272Z,5.13
2023-05-14T19:38:46.691Z,4.57
2023-05-14T19:43:49.533Z,4.43
2023-05-14T19:48:52.800Z,4.03
2023-05-14T19:53:55.795Z,4.78
2023-05-14T19:58:58.670Z,4.25
2023-05-14T20:04:01.517Z,4.43
2023-05-14T20:09:06.272Z,4.43
2023-05-14T20:14:09.410Z,4.32
2023-05-14T20:19:12.370Z,4.13
2023-05-14T20:24:15.322Z,3.30
2023-05-14T20:29:18.310Z,3.72
2023-05-14T20:34:21.200Z,3.15
2023-05-14T20:39:24.200Z,3.33
2023-05-14T20:44:27.046Z,3.22
2023-05-14T20:49:30.002Z,3.30
2023-05-14T20:54:32.763Z,3.80
2023-05-14T20:59:35.613Z,3.55
2023-05-14T21:04:39.080Z,3.58
2023-05-14T21:09:42.428Z,3.47
2023-05-14T21:14:45.433Z,4.05
2023-05-14T21:19:48.220Z,4.18
2023-05-14T21:24:51.532Z,4.05
2023-05-14T21:29:54.466Z,4.40
2023-05-14T21:34:57.394Z,5.47
2023-05-14T21:40:00.305Z,4.35
2023-05-14T21:45:03.528Z,4.70
2023-05-14T21:50:08.298Z,4.40
2023-05-14T21:55:11.371Z,4.25
2023-05-14T22:00:18.995Z,4.70
2023-05-14T22:05:22.525Z,4.80
2023-05-14T22:10:25.509Z,5.05
2023-05-14T22:15:28.347Z,4.72
2023-05-14T22:20:31.802Z,6.53
2023-05-14T22:25:34.743Z,6.65
2023-05-14T22:30:37.561Z,7.22
2023-05-14T22:35:40.847Z,7.18
2023-05-14T22:40:43.666Z,6.55
2023-05-14T22:45:46.582Z,6.10
2023-05-14T22:50:49.421Z,5.90
2023-05-14T22:55:52.235Z,6.38
2023-05-14T23:00:55.149Z,4.38
2023-05-14T23:05:57.990Z,4.30
2023-05-14T23:11:00.892Z,3.35
2023-05-14T23:16:04.279Z,3.53
2023-05-14T23:21:07.121Z,2.92
2023-05-14T23:26:09.916Z,3.80
2023-05-14T23:31:12.721Z,3.20
2023-05-14T23:36:15.946Z,3.20
2023-05-14T23:41:19.113Z,3.35
2023-05-14T23:46:22.721Z,2.97
2023-05-14T23:51:27.446Z,4.43
2023-05-14T23:56:30.453Z,4.17
